Zeran (malta) — 9HHJ5 — position and weather

sailwx.info

Track history (hours):
 
Tides and Currents Weather Stations Pressure Air Temp Water Temp Dewpoint Dewpoint Depression Visibility Wind Speed Wind Dir Waves Ship Positions

Zeran (malta)

Last reported at 2016-Jul-24 15:08 UTC. Time now 2016-Jul-25 08:06 UTC.
Position N 43°07' E 009°34'.

Length 148 m; beam 24 m.

Type: Ship (hazmat cat A). MMSI: 249846000.

Date/timePositionNaut miles runAvg speedWind from/ knotsBaromVisibWave heightAir tempDewpointWater temp
2016-Jul-24 15:08N 43°07' E 009°34'610.4
2016-Jul-24 14:33N 43°13' E 009°31'1010.4
2016-Jul-24 13:33N 43°23' E 009°26'1010.4
2016-Jul-24 12:33N 43°32' E 009°21'1010.5
2016-Jul-24 11:33N 43°42' E 009°16'1110.6
2016-Jul-24 10:33N 43°52' E 009°11'1010.5
2016-Jul-24 09:33N 44°02' E 009°05'1110.7
2016-Jul-24 08:33N 44°12' E 008°60'1110.7
2016-Jul-24 07:33N 44°22' E 008°54'3 3.0
2016-Jul-24 06:33N 44°24' E 008°53'0 0.0
2016-Jul-24 05:33N 44°24' E 008°53'0 0.0
2016-Jul-24 04:33N 44°24' E 008°53'0 0.0
2016-Jul-24 03:30N 44°24' E 008°53'0 0.0
2016-Jul-24 02:33N 44°24' E 008°53'0 0.0
2016-Jul-24 01:33N 44°24' E 008°53'0 0.0
2016-Jul-24 00:33N 44°24' E 008°53'0 0.0
2016-Jul-23 23:33N 44°24' E 008°53'0 0.0
2016-Jul-23 22:33N 44°24' E 008°53'0 0.0
2016-Jul-23 21:33N 44°24' E 008°53'0 0.0
2016-Jul-23 20:33N 44°24' E 008°53'0 0.0
2016-Jul-23 19:33N 44°24' E 008°53'0 0.0
2016-Jul-23 18:33N 44°24' E 008°53'0 0.0
2016-Jul-23 17:33N 44°24' E 008°53'0 0.0
2016-Jul-23 16:33N 44°24' E 008°53'0 0.0
2016-Jul-23 15:33N 44°24' E 008°53'0 0.0
2016-Jul-23 14:33N 44°24' E 008°53'0 0.0
2016-Jul-23 13:33N 44°24' E 008°53'0 0.0
2016-Jul-23 12:33N 44°24' E 008°53'0 0.0
2016-Jul-23 11:33N 44°24' E 008°53'0 0.0
2016-Jul-23 10:33N 44°24' E 008°53'0 0.0
2016-Jul-23 09:33N 44°24' E 008°53'0 0.0
2016-Jul-23 08:33N 44°24' E 008°53'0 0.0
2016-Jul-23 07:33N 44°24' E 008°53'0 0.0
2016-Jul-23 06:33N 44°24' E 008°53'0 0.0
2016-Jul-23 04:33N 44°24' E 008°53'3 3.3
2016-Jul-23 03:34N 44°23' E 008°57'10 9.7
2016-Jul-23 02:34N 44°14' E 009°02'1010.1
2016-Jul-23 01:33N 44°04' E 009°07'10 9.8
2016-Jul-23 00:33N 43°55' E 009°12'10 9.9
2016-Jul-22 23:33N 43°46' E 009°17'1010.1
2016-Jul-22 22:33N 43°37' E 009°23'1010.2
2016-Jul-22 21:33N 43°27' E 009°28'1110.6
2016-Jul-22 20:33N 43°17' E 009°32'1110.8
2016-Jul-22 19:33N 43°07' E 009°37'1111.3
2016-Jul-22 18:33N 42°56' E 009°42'1111.1
2016-Jul-22 17:33N 42°49' E 009°53'1111.3
2016-Jul-22 16:33N 42°41' E 010°05'1111.1
2016-Jul-22 15:33N 42°34' E 010°16'1111.1
2016-Jul-22 14:33N 42°27' E 010°28'1313.0
2016-Jul-22 13:33N 42°20' E 010°42'1713.9
2016-Jul-22 12:21N 42°11' E 011°01'10713.8
2016-Jul-22 04:33N 41°09' E 012°59'1413.9
2016-Jul-22 03:33N 41°01' E 013°14'1413.8
2016-Jul-22 02:33N 40°53' E 013°28'1413.8
2016-Jul-22 01:33N 40°43' E 013°42'1413.7
2016-Jul-22 00:33N 40°37' E 013°58'1313.5
2016-Jul-21 23:34N 40°31' E 014°14'13 1.5
2016-Jul-21 14:24N 40°26' E 014°30'1814.5
2016-Jul-21 13:08N 40°12' E 014°14'814.1
2016-Jul-21 12:33N 40°06' E 014°08'1414.0
2016-Jul-21 11:34N 39°54' E 013°56'1414.2
2016-Jul-21 10:34N 39°43' E 013°45'1414.1
2016-Jul-21 09:33N 39°32' E 013°34'1414.0
2016-Jul-21 08:34N 39°21' E 013°23'1414.1
2016-Jul-21 07:34N 39°10' E 013°11'1414.5
2016-Jul-21 06:33N 38°59' E 012°60'1414.2
2016-Jul-21 05:33N 38°48' E 012°48'1413.9
2016-Jul-21 04:33N 38°38' E 012°35'1414.3
2016-Jul-21 03:33N 38°27' E 012°24'1414.1
2016-Jul-21 02:33N 38°17' E 012°12'1414.1
2016-Jul-21 01:33N 38°06' E 011°60'1514.4
2016-Jul-21 00:33N 37°56' E 011°46'1515.0
2016-Jul-20 23:34N 37°46' E 011°32'1514.5
2016-Jul-20 22:32N 37°36' E 011°19'1414.4
2016-Jul-20 21:33N 37°26' E 011°06'1514.4
2016-Jul-20 20:33N 37°16' E 010°52'1413.5
2016-Jul-20 19:32N 37°06' E 010°41'1413.4
2016-Jul-20 18:30N 36°55' E 010°30'1111.9
2016-Jul-20 17:33N 36°48' E 010°19'1 0.0
2016-Jul-19 04:13N 36°48' E 010°20'3110.1
2016-Jul-19 01:12N 37°18' E 010°23'811.4
2016-Jul-19 00:32N 37°26' E 010°22'1111.3
2016-Jul-18 23:33N 37°37' E 010°21'2411.3
2016-Jul-18 21:27N 37°60' E 010°15'1011.3
2016-Jul-18 20:32N 38°10' E 010°12'1111.4
2016-Jul-18 19:32N 38°21' E 010°08'1111.5
2016-Jul-18 18:33N 38°32' E 010°05'1711.4
2016-Jul-18 17:05N 38°48' E 009°59'611.1
2016-Jul-18 16:31N 38°54' E 009°57'5711.3
2016-Jul-18 11:28N 39°51' E 009°54'10111.2
2016-Jul-18 02:25N 41°32' E 009°47'1011.7
2016-Jul-18 01:33N 41°42' E 009°46'1111.4
2016-Jul-18 00:33N 41°54' E 009°45'2311.2
2016-Jul-17 22:29N 42°17' E 009°44'3411.6
2016-Jul-17 19:33N 42°51' E 009°41'1111.5
2016-Jul-17 18:33N 43°02' E 009°37'1111.3
2016-Jul-17 17:33N 43°13' E 009°32'1111.3
2016-Jul-17 16:33N 43°23' E 009°27'1111.4
2016-Jul-17 15:33N 43°34' E 009°22'1211.7
2016-Jul-17 14:33N 43°45' E 009°16'1211.5
2016-Jul-17 13:33N 43°55' E 009°10'1111.4
2016-Jul-17 12:33N 44°06' E 009°05'1111.3
2016-Jul-17 11:33N 44°17' E 008°59'9 8.7
2016-Jul-17 10:33N 44°24' E 008°53'0 0.3
2016-Jul-17 09:29N 44°24' E 008°53'0 0.0
2016-Jul-17 08:29N 44°24' E 008°53'0 0.0
2016-Jul-17 07:29N 44°24' E 008°53'0 0.0
2016-Jul-17 06:32N 44°24' E 008°53'0 0.0
2016-Jul-17 04:32N 44°24' E 008°53'0 0.0
2016-Jul-17 03:32N 44°24' E 008°53'0 0.0
2016-Jul-17 02:32N 44°24' E 008°53'0 0.0
2016-Jul-17 01:32N 44°24' E 008°53'0 0.0
2016-Jul-17 00:32N 44°24' E 008°53'0 0.0
2016-Jul-16 23:32N 44°24' E 008°53'0 0.0
2016-Jul-16 22:29N 44°24' E 008°53'0 0.0
2016-Jul-16 21:32N 44°24' E 008°53'0 0.0
2016-Jul-16 20:29N 44°24' E 008°53'0 0.0
2016-Jul-16 19:32N 44°24' E 008°53'0 0.0
2016-Jul-16 18:32N 44°24' E 008°53'0 0.0
2016-Jul-16 17:32N 44°24' E 008°53'0 0.0
2016-Jul-16 16:32N 44°24' E 008°53'0 0.0
2016-Jul-16 15:32N 44°24' E 008°53'0 0.0
2016-Jul-16 14:33N 44°24' E 008°53'9 9.2
2016-Jul-16 13:33N 44°17' E 009°00'1414.4
2016-Jul-16 12:33N 44°04' E 009°08'1514.5
2016-Jul-16 11:33N 43°50' E 009°15'1514.6
2016-Jul-16 10:33N 43°37' E 009°22'1514.7
2016-Jul-16 09:33N 43°23' E 009°29'1514.5
2016-Jul-16 08:33N 43°09' E 009°36'1514.4
2016-Jul-16 07:33N 42°56' E 009°43'4313.9
2016-Jul-16 04:30N 42°28' E 010°27'16712.9
2016-Jul-15 15:33N 40°52' E 013°30'1313.0
2016-Jul-15 14:33N 40°43' E 013°43'1312.7
2016-Jul-15 13:33N 40°37' E 013°57'1313.3
2016-Jul-15 12:33N 40°31' E 014°13'  
Track history (hours):
 
Tides and Currents Weather Stations Pressure Air Temp Water Temp Dewpoint Dewpoint Depression Visibility Wind Speed Wind Dir Waves Ship Positions

Zeran (malta)

Last reported at 2016-Jul-24 15:08 UTC. Time now 2016-Jul-25 08:06 UTC.
Position N 43°07' E 009°34'.

Length 148 m; beam 24 m.

Type: Ship (hazmat cat A). MMSI: 249846000.

Date/timePositionNaut miles runAvg speedWind from/ knotsBaromVisibWave heightAir tempDewpointWater temp
2016-Jul-24 15:08N 43°07' E 009°34'610.4
2016-Jul-24 14:33N 43°13' E 009°31'1010.4
2016-Jul-24 13:33N 43°23' E 009°26'1010.4
2016-Jul-24 12:33N 43°32' E 009°21'1010.5
2016-Jul-24 11:33N 43°42' E 009°16'1110.6
2016-Jul-24 10:33N 43°52' E 009°11'1010.5
2016-Jul-24 09:33N 44°02' E 009°05'1110.7
2016-Jul-24 08:33N 44°12' E 008°60'1110.7
2016-Jul-24 07:33N 44°22' E 008°54'3 3.0
2016-Jul-24 06:33N 44°24' E 008°53'0 0.0
2016-Jul-24 05:33N 44°24' E 008°53'0 0.0
2016-Jul-24 04:33N 44°24' E 008°53'0 0.0
2016-Jul-24 03:30N 44°24' E 008°53'0 0.0
2016-Jul-24 02:33N 44°24' E 008°53'0 0.0
2016-Jul-24 01:33N 44°24' E 008°53'0 0.0
2016-Jul-24 00:33N 44°24' E 008°53'0 0.0
2016-Jul-23 23:33N 44°24' E 008°53'0 0.0
2016-Jul-23 22:33N 44°24' E 008°53'0 0.0
2016-Jul-23 21:33N 44°24' E 008°53'0 0.0
2016-Jul-23 20:33N 44°24' E 008°53'0 0.0
2016-Jul-23 19:33N 44°24' E 008°53'0 0.0
2016-Jul-23 18:33N 44°24' E 008°53'0 0.0
2016-Jul-23 17:33N 44°24' E 008°53'0 0.0
2016-Jul-23 16:33N 44°24' E 008°53'0 0.0
2016-Jul-23 15:33N 44°24' E 008°53'0 0.0
2016-Jul-23 14:33N 44°24' E 008°53'0 0.0
2016-Jul-23 13:33N 44°24' E 008°53'0 0.0
2016-Jul-23 12:33N 44°24' E 008°53'0 0.0
2016-Jul-23 11:33N 44°24' E 008°53'0 0.0
2016-Jul-23 10:33N 44°24' E 008°53'0 0.0
2016-Jul-23 09:33N 44°24' E 008°53'0 0.0
2016-Jul-23 08:33N 44°24' E 008°53'0 0.0
2016-Jul-23 07:33N 44°24' E 008°53'0 0.0
2016-Jul-23 06:33N 44°24' E 008°53'0 0.0
2016-Jul-23 04:33N 44°24' E 008°53'3 3.3
2016-Jul-23 03:34N 44°23' E 008°57'10 9.7
2016-Jul-23 02:34N 44°14' E 009°02'1010.1
2016-Jul-23 01:33N 44°04' E 009°07'10 9.8
2016-Jul-23 00:33N 43°55' E 009°12'10 9.9
2016-Jul-22 23:33N 43°46' E 009°17'1010.1
2016-Jul-22 22:33N 43°37' E 009°23'1010.2
2016-Jul-22 21:33N 43°27' E 009°28'1110.6
2016-Jul-22 20:33N 43°17' E 009°32'1110.8
2016-Jul-22 19:33N 43°07' E 009°37'1111.3
2016-Jul-22 18:33N 42°56' E 009°42'1111.1
2016-Jul-22 17:33N 42°49' E 009°53'1111.3
2016-Jul-22 16:33N 42°41' E 010°05'1111.1
2016-Jul-22 15:33N 42°34' E 010°16'1111.1
2016-Jul-22 14:33N 42°27' E 010°28'1313.0
2016-Jul-22 13:33N 42°20' E 010°42'1713.9
2016-Jul-22 12:21N 42°11' E 011°01'10713.8
2016-Jul-22 04:33N 41°09' E 012°59'1413.9
2016-Jul-22 03:33N 41°01' E 013°14'1413.8
2016-Jul-22 02:33N 40°53' E 013°28'1413.8
2016-Jul-22 01:33N 40°43' E 013°42'1413.7
2016-Jul-22 00:33N 40°37' E 013°58'1313.5
2016-Jul-21 23:34N 40°31' E 014°14'13 1.5
2016-Jul-21 14:24N 40°26' E 014°30'1814.5
2016-Jul-21 13:08N 40°12' E 014°14'814.1
2016-Jul-21 12:33N 40°06' E 014°08'1414.0
2016-Jul-21 11:34N 39°54' E 013°56'1414.2
2016-Jul-21 10:34N 39°43' E 013°45'1414.1
2016-Jul-21 09:33N 39°32' E 013°34'1414.0
2016-Jul-21 08:34N 39°21' E 013°23'1414.1
2016-Jul-21 07:34N 39°10' E 013°11'1414.5
2016-Jul-21 06:33N 38°59' E 012°60'1414.2
2016-Jul-21 05:33N 38°48' E 012°48'1413.9
2016-Jul-21 04:33N 38°38' E 012°35'1414.3
2016-Jul-21 03:33N 38°27' E 012°24'1414.1
2016-Jul-21 02:33N 38°17' E 012°12'1414.1
2016-Jul-21 01:33N 38°06' E 011°60'1514.4
2016-Jul-21 00:33N 37°56' E 011°46'1515.0
2016-Jul-20 23:34N 37°46' E 011°32'1514.5
2016-Jul-20 22:32N 37°36' E 011°19'1414.4
2016-Jul-20 21:33N 37°26' E 011°06'1514.4
2016-Jul-20 20:33N 37°16' E 010°52'1413.5
2016-Jul-20 19:32N 37°06' E 010°41'1413.4
2016-Jul-20 18:30N 36°55' E 010°30'1111.9
2016-Jul-20 17:33N 36°48' E 010°19'1 0.0
2016-Jul-19 04:13N 36°48' E 010°20'3110.1
2016-Jul-19 01:12N 37°18' E 010°23'811.4
2016-Jul-19 00:32N 37°26' E 010°22'1111.3
2016-Jul-18 23:33N 37°37' E 010°21'2411.3
2016-Jul-18 21:27N 37°60' E 010°15'1011.3
2016-Jul-18 20:32N 38°10' E 010°12'1111.4
2016-Jul-18 19:32N 38°21' E 010°08'1111.5
2016-Jul-18 18:33N 38°32' E 010°05'1711.4
2016-Jul-18 17:05N 38°48' E 009°59'611.1
2016-Jul-18 16:31N 38°54' E 009°57'5711.3
2016-Jul-18 11:28N 39°51' E 009°54'10111.2
2016-Jul-18 02:25N 41°32' E 009°47'1011.7
2016-Jul-18 01:33N 41°42' E 009°46'1111.4
2016-Jul-18 00:33N 41°54' E 009°45'2311.2
2016-Jul-17 22:29N 42°17' E 009°44'3411.6
2016-Jul-17 19:33N 42°51' E 009°41'1111.5
2016-Jul-17 18:33N 43°02' E 009°37'1111.3
2016-Jul-17 17:33N 43°13' E 009°32'1111.3
2016-Jul-17 16:33N 43°23' E 009°27'1111.4
2016-Jul-17 15:33N 43°34' E 009°22'1211.7
2016-Jul-17 14:33N 43°45' E 009°16'1211.5
2016-Jul-17 13:33N 43°55' E 009°10'1111.4
2016-Jul-17 12:33N 44°06' E 009°05'1111.3
2016-Jul-17 11:33N 44°17' E 008°59'9 8.7
2016-Jul-17 10:33N 44°24' E 008°53'0 0.3
2016-Jul-17 09:29N 44°24' E 008°53'0 0.0
2016-Jul-17 08:29N 44°24' E 008°53'0 0.0
2016-Jul-17 07:29N 44°24' E 008°53'0 0.0
2016-Jul-17 06:32N 44°24' E 008°53'0 0.0
2016-Jul-17 04:32N 44°24' E 008°53'0 0.0
2016-Jul-17 03:32N 44°24' E 008°53'0 0.0
2016-Jul-17 02:32N 44°24' E 008°53'0 0.0
2016-Jul-17 01:32N 44°24' E 008°53'0 0.0
2016-Jul-17 00:32N 44°24' E 008°53'0 0.0
2016-Jul-16 23:32N 44°24' E 008°53'0 0.0
2016-Jul-16 22:29N 44°24' E 008°53'0 0.0
2016-Jul-16 21:32N 44°24' E 008°53'0 0.0
2016-Jul-16 20:29N 44°24' E 008°53'0 0.0
2016-Jul-16 19:32N 44°24' E 008°53'0 0.0
2016-Jul-16 18:32N 44°24' E 008°53'0 0.0
2016-Jul-16 17:32N 44°24' E 008°53'0 0.0
2016-Jul-16 16:32N 44°24' E 008°53'0 0.0
2016-Jul-16 15:32N 44°24' E 008°53'0 0.0
2016-Jul-16 14:33N 44°24' E 008°53'9 9.2
2016-Jul-16 13:33N 44°17' E 009°00'1414.4
2016-Jul-16 12:33N 44°04' E 009°08'1514.5
2016-Jul-16 11:33N 43°50' E 009°15'1514.6
2016-Jul-16 10:33N 43°37' E 009°22'1514.7
2016-Jul-16 09:33N 43°23' E 009°29'1514.5
2016-Jul-16 08:33N 43°09' E 009°36'1514.4
2016-Jul-16 07:33N 42°56' E 009°43'4313.9
2016-Jul-16 04:30N 42°28' E 010°27'16712.9
2016-Jul-15 15:33N 40°52' E 013°30'1313.0
2016-Jul-15 14:33N 40°43' E 013°43'1312.7
2016-Jul-15 13:33N 40°37' E 013°57'1313.3
2016-Jul-15 12:33N 40°31' E 014°13'  

Dump ship's entire track history